Time;durP1;ratioP1;P1;durP2;ratioP2;P2;SDS_P1;SDS_P2;PMS_P1;PMS_P2;Temp;Humidity;BMP_temperature;BMP_pressure;BME280_temperature;BME280_humidity;BME280_pressure;Samples;Min_cycle;Max_cycle;Signal;HPM_P1;HPM_P2
2021/11/05 00:00:27;;;;;;;2.55;1.30;;;22.10;53.70;;;;;;5041880;28;20048;-57
2021/11/05 00:02:54;;;;;;;2.70;1.20;;;22.10;53.70;;;;;;5028611;28;20029;-60
2021/11/05 00:05:27;;;;;;;2.20;1.20;;;22.10;53.70;;;;;;5040757;28;20107;-60
2021/11/05 00:07:53;;;;;;;2.03;1.10;;;22.10;53.70;;;;;;5028719;28;20412;-59
2021/11/05 00:10:20;;;;;;;3.10;1.30;;;22.00;53.70;;;;;;5040655;28;20030;-59
2021/11/05 00:12:46;;;;;;;2.42;1.15;;;22.00;53.70;;;;;;5044483;28;20049;-59
2021/11/05 00:15:12;;;;;;;2.50;1.30;;;22.00;53.70;;;;;;5048042;28;20063;-59
2021/11/05 00:17:38;;;;;;;2.17;1.15;;;22.00;53.70;;;;;;5038097;28;21182;-57
2021/11/05 00:20:05;;;;;;;2.15;1.00;;;22.00;53.80;;;;;;5034573;28;20119;-56
2021/11/05 00:22:30;;;;;;;2.55;1.10;;;22.00;53.80;;;;;;5036331;28;20737;-58
2021/11/05 00:24:56;;;;;;;2.08;1.10;;;21.90;53.80;;;;;;5032944;28;20040;-59
2021/11/05 00:27:22;;;;;;;2.08;1.20;;;21.90;53.80;;;;;;5035854;28;20436;-58
2021/11/05 00:29:47;;;;;;;2.25;1.02;;;21.90;53.80;;;;;;5040643;28;20025;-59
2021/11/05 00:32:13;;;;;;;2.78;1.10;;;21.90;53.80;;;;;;5040662;28;20056;-59
2021/11/05 00:34:39;;;;;;;2.22;1.20;;;21.90;53.80;;;;;;5033619;28;20040;-54
2021/11/05 00:37:05;;;;;;;2.30;1.13;;;21.90;53.80;;;;;;5031515;28;20036;-57
2021/11/05 00:39:31;;;;;;;2.38;1.35;;;21.90;53.80;;;;;;5028786;28;20032;-59
2021/11/05 00:41:56;;;;;;;3.00;1.20;;;21.80;53.80;;;;;;5027742;28;20095;-59
2021/11/05 00:44:22;;;;;;;2.20;1.20;;;21.80;53.80;;;;;;5031049;28;20136;-55
2021/11/05 00:46:48;;;;;;;2.33;1.17;;;21.80;53.80;;;;;;5030211;28;20029;-59
2021/11/05 00:49:13;;;;;;;2.38;1.15;;;21.80;53.80;;;;;;5032680;28;20111;-57
2021/11/05 00:51:39;;;;;;;2.17;1.10;;;21.80;53.80;;;;;;5031615;28;20021;-59
2021/11/05 00:54:05;;;;;;;2.83;1.25;;;21.80;53.80;;;;;;5031462;28;20025;-59
2021/11/05 00:56:30;;;;;;;2.60;1.15;;;21.80;53.80;;;;;;5030142;28;20062;-59
2021/11/05 00:58:56;;;;;;;2.22;1.30;;;21.80;53.90;;;;;;5031886;28;20744;-57
2021/11/05 01:01:22;;;;;;;2.28;1.20;;;21.80;53.90;;;;;;5031814;28;20042;-60
2021/11/05 01:03:47;;;;;;;2.17;1.10;;;21.70;53.80;;;;;;5031674;28;20575;-59
2021/11/05 01:06:18;;;;;;;2.58;1.13;;;21.70;53.80;;;;;;5029864;28;20511;-53
2021/11/05 01:08:44;;;;;;;2.42;1.38;;;21.70;53.80;;;;;;5028602;28;20044;-58
2021/11/05 01:11:10;;;;;;;2.05;1.20;;;21.70;53.80;;;;;;5029115;28;20025;-59
2021/11/05 01:13:36;;;;;;;1.80;0.95;;;21.70;53.80;;;;;;5028687;28;20079;-58
2021/11/05 01:16:02;;;;;;;3.08;1.40;;;21.70;53.80;;;;;;5032647;28;20411;-58
2021/11/05 01:18:28;;;;;;;1.90;1.00;;;21.70;53.80;;;;;;5031923;28;20029;-56
2021/11/05 01:20:53;;;;;;;1.67;1.00;;;21.60;53.80;;;;;;5032150;28;20033;-58
2021/11/05 01:23:21;;;;;;;2.25;1.10;;;21.60;53.80;;;;;;5033822;28;20441;-60
2021/11/05 01:25:48;;;;;;;2.13;1.20;;;21.60;53.80;;;;;;5031706;28;20047;-59
2021/11/05 01:28:13;;;;;;;2.10;1.17;;;21.60;53.80;;;;;;5029966;28;20059;-59
2021/11/05 01:30:39;;;;;;;2.83;1.20;;;21.60;53.80;;;;;;5031178;28;20041;-59
2021/11/05 01:33:08;;;;;;;1.70;0.90;;;21.60;53.80;;;;;;5030788;28;20017;-58
2021/11/05 01:35:38;;;;;;;1.75;0.90;;;21.60;53.80;;;;;;5032707;28;20112;-58
2021/11/05 01:38:06;;;;;;;2.83;1.40;;;21.60;53.80;;;;;;5027586;28;20391;-59
2021/11/05 01:40:33;;;;;;;1.77;1.00;;;21.60;53.80;;;;;;5029407;28;20512;-58
2021/11/05 01:43:01;;;;;;;2.08;1.13;;;21.60;53.80;;;;;;5028484;28;20124;-57
2021/11/05 01:45:28;;;;;;;1.60;1.00;;;21.50;53.70;;;;;;5034121;28;20108;-59
2021/11/05 01:47:54;;;;;;;2.50;1.10;;;21.50;53.80;;;;;;5036460;28;20055;-59
2021/11/05 01:50:20;;;;;;;2.10;1.05;;;21.50;53.80;;;;;;5038801;28;20096;-57
2021/11/05 01:52:46;;;;;;;1.40;0.90;;;21.50;53.80;;;;;;5038462;28;20021;-60
2021/11/05 01:55:12;;;;;;;1.75;1.10;;;21.50;53.80;;;;;;5033645;28;20029;-59
2021/11/05 01:57:38;;;;;;;2.13;1.02;;;21.50;53.80;;;;;;5031336;28;20032;-60
2021/11/05 02:00:06;;;;;;;1.63;0.95;;;21.50;53.80;;;;;;5047926;28;20510;-59
2021/11/05 02:02:32;;;;;;;2.75;1.17;;;21.50;53.80;;;;;;5043785;28;20071;-59
2021/11/05 02:04:57;;;;;;;1.58;0.90;;;21.40;53.80;;;;;;5044209;28;20029;-58
2021/11/05 02:07:28;;;;;;;2.65;0.95;;;21.40;53.80;;;;;;5033877;28;20021;-59
2021/11/05 02:09:56;;;;;;;1.63;0.95;;;21.40;53.90;;;;;;5041018;28;20124;-59
2021/11/05 02:12:21;;;;;;;1.83;1.13;;;21.40;53.90;;;;;;5035317;28;20590;-59
2021/11/05 02:14:48;;;;;;;2.20;1.00;;;21.40;53.90;;;;;;5042698;28;20029;-59
2021/11/05 02:17:14;;;;;;;1.65;1.00;;;21.40;53.90;;;;;;5043891;28;20048;-59
2021/11/05 02:19:39;;;;;;;1.42;0.80;;;21.40;53.90;;;;;;5035742;28;20373;-59
2021/11/05 02:22:05;;;;;;;1.45;1.00;;;21.40;53.90;;;;;;5038842;28;20062;-60
2021/11/05 02:24:32;;;;;;;1.95;0.93;;;21.40;53.90;;;;;;5044574;28;20468;-59
2021/11/05 02:26:58;;;;;;;1.85;0.90;;;21.30;53.90;;;;;;5032048;28;20049;-58
2021/11/05 02:29:26;;;;;;;1.90;1.00;;;21.30;53.90;;;;;;5040846;28;20029;-59
2021/11/05 02:31:53;;;;;;;1.77;0.98;;;21.30;53.90;;;;;;5038221;28;20098;-53
2021/11/05 02:34:19;;;;;;;1.48;0.80;;;21.30;53.90;;;;;;5040096;28;22390;-58
2021/11/05 02:36:45;;;;;;;1.73;0.90;;;21.30;54.00;;;;;;5041381;28;20118;-59
2021/11/05 02:39:11;;;;;;;1.90;0.90;;;21.30;54.00;;;;;;5041676;28;20515;-53
2021/11/05 02:41:47;;;;;;;2.35;1.20;;;21.30;54.00;;;;;;5035764;28;20120;-58
2021/11/05 02:44:13;;;;;;;1.98;1.00;;;21.30;54.00;;;;;;5035558;28;20037;-58
2021/11/05 02:46:39;;;;;;;1.90;1.00;;;21.30;54.00;;;;;;5033542;28;20049;-58
2021/11/05 02:49:06;;;;;;;1.60;1.00;;;21.20;54.00;;;;;;5032837;28;20032;-57
2021/11/05 02:51:33;;;;;;;1.90;1.02;;;21.20;54.00;;;;;;5043321;28;20029;-57
2021/11/05 02:53:59;;;;;;;1.67;1.00;;;21.20;54.00;;;;;;5039136;28;20029;-59
2021/11/05 02:56:25;;;;;;;1.92;1.08;;;21.30;54.10;;;;;;5036357;28;20102;-59
2021/11/05 02:58:51;;;;;;;1.50;0.90;;;21.20;54.00;;;;;;5033300;28;20028;-60
2021/11/05 03:01:17;;;;;;;1.63;1.00;;;21.20;54.00;;;;;;5034705;28;20048;-59
2021/11/05 03:03:43;;;;;;;1.25;0.80;;;21.20;54.00;;;;;;5039792;28;20067;-56
2021/11/05 03:06:09;;;;;;;1.52;0.90;;;21.20;54.00;;;;;;5037634;28;20060;-58
2021/11/05 03:08:34;;;;;;;1.40;0.80;;;21.20;54.00;;;;;;5037453;28;20136;-58
2021/11/05 03:11:01;;;;;;;2.90;1.10;;;21.20;54.10;;;;;;5034187;28;20038;-57
2021/11/05 03:13:27;;;;;;;1.65;0.98;;;21.20;54.10;;;;;;5033745;28;20103;-60
2021/11/05 03:15:52;;;;;;;1.70;0.90;;;21.20;54.10;;;;;;5031907;28;20466;-59
2021/11/05 03:18:18;;;;;;;1.85;1.00;;;21.10;54.10;;;;;;5031207;28;20029;-57
2021/11/05 03:20:45;;;;;;;1.80;1.10;;;21.20;54.10;;;;;;5039037;28;20045;-59
2021/11/05 03:23:14;;;;;;;1.38;0.90;;;21.10;54.10;;;;;;5035800;28;20106;-58
2021/11/05 03:25:39;;;;;;;1.83;1.10;;;21.10;54.10;;;;;;5037010;28;20025;-59
2021/11/05 03:28:05;;;;;;;1.40;0.90;;;21.10;54.10;;;;;;5030846;28;20612;-57
2021/11/05 03:30:32;;;;;;;1.77;1.10;;;21.10;54.10;;;;;;5037923;28;20433;-59
2021/11/05 03:32:58;;;;;;;1.48;0.95;;;21.10;54.10;;;;;;5039904;28;20041;-59
2021/11/05 03:35:23;;;;;;;1.00;0.80;;;21.10;54.10;;;;;;5043408;28;20108;-59
2021/11/05 03:37:49;;;;;;;1.08;0.90;;;21.10;54.10;;;;;;5039322;28;20441;-57
2021/11/05 03:40:17;;;;;;;1.33;0.90;;;21.10;54.10;;;;;;5033634;28;20029;-59
2021/11/05 03:42:43;;;;;;;1.63;1.00;;;21.10;54.10;;;;;;5043866;28;20115;-60
2021/11/05 03:45:09;;;;;;;1.50;0.88;;;21.10;54.10;;;;;;5034573;28;20083;-59
2021/11/05 03:47:36;;;;;;;1.48;0.98;;;21.10;54.10;;;;;;5031862;28;20045;-59
2021/11/05 03:50:03;;;;;;;1.45;0.88;;;21.10;54.10;;;;;;5032253;28;20033;-58
2021/11/05 03:52:28;;;;;;;0.98;0.70;;;21.10;54.20;;;;;;5037547;28;20096;-59
2021/11/05 03:54:54;;;;;;;1.17;0.73;;;21.10;54.10;;;;;;5038326;28;20101;-59
2021/11/05 03:57:19;;;;;;;1.40;1.00;;;21.10;54.20;;;;;;5033472;28;20075;-58
2021/11/05 03:59:46;;;;;;;1.50;0.90;;;21.10;54.10;;;;;;5036721;28;20037;-59
2021/11/05 04:02:12;;;;;;;2.42;1.10;;;21.00;54.50;;;;;;5037571;28;20546;-57
2021/11/05 04:04:37;;;;;;;1.10;0.80;;;21.00;54.10;;;;;;5039131;28;20057;-59
2021/11/05 04:07:03;;;;;;;2.03;0.90;;;21.00;54.10;;;;;;5039549;28;20044;-59
2021/11/05 04:09:29;;;;;;;1.35;0.80;;;21.00;54.10;;;;;;5038293;28;20107;-59
2021/11/05 04:11:54;;;;;;;0.70;0.70;;;21.00;54.10;;;;;;5036162;28;20112;-59
2021/11/05 04:14:20;;;;;;;1.33;0.88;;;21.00;54.10;;;;;;5041723;28;20611;-59
2021/11/05 04:16:45;;;;;;;1.75;0.82;;;21.00;54.10;;;;;;5038683;28;20063;-59
2021/11/05 04:19:11;;;;;;;1.40;0.90;;;21.00;54.10;;;;;;5038800;28;20064;-56
2021/11/05 04:21:37;;;;;;;1.70;1.08;;;21.00;54.20;;;;;;5036236;28;20491;-58
2021/11/05 04:24:06;;;;;;;1.02;0.70;;;21.00;54.20;;;;;;5041953;28;20039;-59
2021/11/05 04:26:31;;;;;;;1.73;0.95;;;21.00;54.20;;;;;;5039756;28;20597;-59
2021/11/05 04:28:57;;;;;;;1.67;0.90;;;21.00;54.20;;;;;;5040638;28;20041;-57
2021/11/05 04:31:22;;;;;;;1.05;0.80;;;21.00;54.20;;;;;;5035969;28;20029;-57
2021/11/05 04:33:48;;;;;;;1.38;0.80;;;21.00;54.20;;;;;;5041612;28;20615;-54
2021/11/05 04:36:15;;;;;;;1.48;0.90;;;21.00;54.20;;;;;;5029545;28;20073;-59
2021/11/05 04:38:41;;;;;;;1.85;0.80;;;20.90;54.20;;;;;;5033704;28;20024;-57
2021/11/05 04:41:07;;;;;;;1.30;0.80;;;20.90;54.20;;;;;;5035868;28;20041;-59
2021/11/05 04:43:32;;;;;;;1.17;0.80;;;20.90;54.20;;;;;;5031470;28;20681;-59
2021/11/05 04:45:58;;;;;;;1.20;0.80;;;20.90;54.20;;;;;;5027410;28;20049;-58
2021/11/05 04:48:24;;;;;;;0.98;0.77;;;20.90;54.20;;;;;;5031622;28;20410;-58
2021/11/05 04:50:49;;;;;;;1.73;0.90;;;20.90;54.20;;;;;;5033274;28;20104;-59
2021/11/05 04:53:15;;;;;;;1.60;0.90;;;20.90;54.20;;;;;;5035489;28;20437;-58
2021/11/05 04:55:41;;;;;;;1.00;0.80;;;20.90;54.20;;;;;;5036010;28;20075;-59
2021/11/05 04:58:06;;;;;;;1.33;0.90;;;20.90;54.20;;;;;;5034051;28;20031;-57
2021/11/05 05:00:32;;;;;;;1.20;0.80;;;20.90;54.20;;;;;;5040410;28;20796;-59
2021/11/05 05:02:58;;;;;;;0.90;0.80;;;20.90;54.20;;;;;;5031526;28;20037;-59
2021/11/05 05:05:24;;;;;;;1.60;0.73;;;20.90;54.20;;;;;;5035349;28;20048;-59
2021/11/05 05:07:51;;;;;;;1.55;0.82;;;20.90;54.20;;;;;;5038159;28;20422;-59
2021/11/05 05:10:17;;;;;;;1.20;0.65;;;20.90;54.30;;;;;;5039941;28;20024;-57
2021/11/05 05:12:43;;;;;;;1.15;0.70;;;20.90;54.80;;;;;;5049671;28;20401;-59
2021/11/05 05:15:11;;;;;;;1.73;0.93;;;20.90;54.30;;;;;;5036848;28;20648;-57
2021/11/05 05:17:37;;;;;;;1.15;0.80;;;20.90;54.40;;;;;;5035350;28;20053;-59
2021/11/05 05:20:05;;;;;;;1.35;0.73;;;20.90;54.30;;;;;;5035522;28;20061;-59
2021/11/05 05:22:31;;;;;;;1.05;0.80;;;20.90;54.30;;;;;;5036878;28;20041;-59
2021/11/05 05:24:57;;;;;;;2.35;0.90;;;20.90;54.30;;;;;;5036172;28;20032;-58
2021/11/05 05:27:23;;;;;;;1.10;0.77;;;20.80;54.30;;;;;;5033959;28;20112;-59
2021/11/05 05:29:50;;;;;;;1.00;0.80;;;20.80;54.30;;;;;;5039743;28;20104;-60
2021/11/05 05:32:16;;;;;;;1.27;0.80;;;20.80;54.30;;;;;;5034181;28;20033;-54
2021/11/05 05:34:41;;;;;;;1.50;0.80;;;20.80;54.30;;;;;;5036785;28;20054;-59
2021/11/05 05:37:07;;;;;;;0.85;0.60;;;20.80;54.30;;;;;;5044329;28;20086;-59
2021/11/05 05:39:33;;;;;;;1.00;0.73;;;20.80;54.40;;;;;;5033377;28;20044;-59
2021/11/05 05:41:59;;;;;;;0.98;0.70;;;20.80;54.30;;;;;;5034228;28;20764;-57
2021/11/05 05:44:25;;;;;;;0.80;0.60;;;20.80;54.40;;;;;;5042053;28;20171;-59
2021/11/05 05:46:51;;;;;;;0.77;0.60;;;20.80;54.40;;;;;;5042732;28;20072;-55
2021/11/05 05:49:17;;;;;;;1.20;0.88;;;20.80;54.40;;;;;;5042770;28;20021;-58
2021/11/05 05:51:43;;;;;;;1.23;0.65;;;20.80;54.40;;;;;;5041739;28;20049;-57
2021/11/05 05:54:09;;;;;;;0.98;0.80;;;20.80;54.40;;;;;;5042818;28;20471;-58
2021/11/05 05:56:34;;;;;;;1.15;0.73;;;20.80;54.40;;;;;;5033995;28;20043;-56
2021/11/05 05:59:00;;;;;;;1.08;0.70;;;20.80;54.40;;;;;;5041835;28;20085;-59
2021/11/05 06:01:26;;;;;;;1.10;0.90;;;20.80;54.40;;;;;;5044830;28;20037;-55
2021/11/05 06:03:52;;;;;;;0.90;0.60;;;20.80;54.40;;;;;;5036137;28;20033;-57
2021/11/05 06:06:17;;;;;;;1.67;0.80;;;20.80;54.50;;;;;;5033892;28;20033;-60
2021/11/05 06:08:44;;;;;;;1.02;0.80;;;20.80;54.50;;;;;;5041745;28;20111;-59
2021/11/05 06:11:10;;;;;;;1.05;0.70;;;20.80;54.50;;;;;;5037156;28;20536;-59
2021/11/05 06:13:36;;;;;;;1.30;0.82;;;20.80;54.40;;;;;;5039637;28;20453;-60
2021/11/05 06:16:02;;;;;;;1.00;0.70;;;20.70;54.40;;;;;;5036212;28;20029;-58
2021/11/05 06:18:28;;;;;;;1.30;0.73;;;20.70;54.40;;;;;;5034158;28;20043;-60
2021/11/05 06:20:54;;;;;;;1.30;0.73;;;20.70;54.40;;;;;;5039977;28;20128;-59
2021/11/05 06:23:20;;;;;;;1.52;0.80;;;20.80;54.50;;;;;;5042038;28;20052;-57
2021/11/05 06:25:45;;;;;;;0.80;0.70;;;20.70;54.50;;;;;;5038791;28;20088;-57
2021/11/05 06:28:11;;;;;;;0.90;0.70;;;20.70;54.50;;;;;;5034601;28;20033;-60
2021/11/05 06:30:37;;;;;;;1.52;0.80;;;20.70;54.50;;;;;;5044927;28;20051;-57
2021/11/05 06:33:02;;;;;;;1.30;0.80;;;20.70;54.50;;;;;;5041225;28;20059;-58
2021/11/05 06:35:29;;;;;;;1.00;0.80;;;20.70;54.50;;;;;;5033965;28;20677;-55
2021/11/05 06:37:56;;;;;;;0.90;0.68;;;20.70;54.50;;;;;;5056419;28;20044;-59
2021/11/05 06:40:21;;;;;;;0.82;0.70;;;20.70;54.50;;;;;;5036762;28;20045;-58
2021/11/05 06:42:47;;;;;;;1.00;0.65;;;20.70;54.50;;;;;;5041775;28;20055;-60
2021/11/05 06:45:13;;;;;;;0.98;0.80;;;20.70;54.50;;;;;;5036183;28;20033;-60
2021/11/05 06:47:38;;;;;;;0.80;0.70;;;20.70;54.50;;;;;;5032922;28;20431;-59
2021/11/05 06:50:07;;;;;;;1.33;0.77;;;20.70;54.50;;;;;;5036457;28;20033;-59
2021/11/05 06:52:34;;;;;;;1.60;1.00;;;20.70;54.50;;;;;;5042146;28;20081;-58
2021/11/05 06:54:59;;;;;;;1.13;0.70;;;20.70;54.50;;;;;;5041405;28;20028;-56
2021/11/05 06:57:25;;;;;;;0.75;0.73;;;20.70;54.40;;;;;;5035718;28;20059;-59
2021/11/05 06:59:51;;;;;;;0.82;0.70;;;20.70;54.40;;;;;;5034485;28;20025;-59
2021/11/05 07:02:16;;;;;;;1.08;0.77;;;20.70;54.40;;;;;;5035474;28;20056;-58
2021/11/05 07:04:42;;;;;;;1.10;0.70;;;20.70;54.30;;;;;;5033561;28;20107;-58
2021/11/05 07:07:08;;;;;;;1.20;0.88;;;20.70;54.40;;;;;;5033162;28;20065;-58
2021/11/05 07:09:34;;;;;;;1.13;0.80;;;20.60;54.30;;;;;;5048807;28;20132;-59
2021/11/05 07:11:59;;;;;;;1.10;0.70;;;20.70;54.30;;;;;;5048370;28;20040;-58
2021/11/05 07:14:25;;;;;;;1.17;0.80;;;20.60;54.30;;;;;;5034189;28;20025;-59
2021/11/05 07:16:51;;;;;;;1.10;0.70;;;20.70;54.30;;;;;;5036340;28;20087;-57
2021/11/05 07:19:18;;;;;;;0.88;0.60;;;20.60;54.20;;;;;;5035087;28;20033;-59
2021/11/05 07:21:44;;;;;;;1.20;0.77;;;20.60;54.20;;;;;;5031068;28;20630;-58
2021/11/05 07:24:10;;;;;;;0.95;0.60;;;20.60;54.20;;;;;;5041622;28;20084;-59
2021/11/05 07:26:45;;;;;;;1.17;0.80;;;20.60;54.20;;;;;;5041893;28;20712;-58
2021/11/05 07:29:12;;;;;;;1.35;0.70;;;20.60;54.20;;;;;;5043023;28;20106;-60
2021/11/05 07:31:39;;;;;;;1.27;0.80;;;20.60;54.20;;;;;;5043314;28;20044;-58
2021/11/05 07:34:05;;;;;;;0.82;0.70;;;20.60;54.70;;;;;;5028951;28;20180;-59
2021/11/05 07:36:31;;;;;;;1.13;0.70;;;20.60;54.20;;;;;;5038118;28;20925;-57
2021/11/05 07:38:57;;;;;;;1.13;0.70;;;20.60;54.20;;;;;;5033603;28;20049;-59
2021/11/05 07:41:25;;;;;;;1.33;0.93;;;20.60;54.20;;;;;;5038680;28;20066;-57
2021/11/05 07:43:51;;;;;;;0.90;0.70;;;20.60;54.20;;;;;;5031124;28;20112;-59
2021/11/05 07:46:17;;;;;;;1.25;0.70;;;20.60;54.20;;;;;;5035581;28;20014;-60
2021/11/05 07:48:43;;;;;;;0.85;0.70;;;20.60;54.20;;;;;;5033366;28;20029;-59
2021/11/05 07:51:08;;;;;;;1.00;0.80;;;20.60;54.20;;;;;;5034082;28;20501;-58
2021/11/05 07:53:34;;;;;;;0.93;0.77;;;20.60;54.20;;;;;;5032442;28;20441;-58
2021/11/05 07:56:00;;;;;;;1.13;0.80;;;20.60;54.20;;;;;;5046670;28;20531;-59
2021/11/05 07:58:26;;;;;;;0.77;0.70;;;20.60;54.20;;;;;;5033378;28;20026;-59
2021/11/05 08:00:51;;;;;;;0.82;0.73;;;20.50;54.20;;;;;;5058964;28;20111;-59
2021/11/05 08:03:17;;;;;;;0.95;0.73;;;20.50;54.20;;;;;;5054194;28;20024;-58
2021/11/05 08:05:43;;;;;;;1.35;0.77;;;20.50;54.20;;;;;;5038447;28;20037;-58
2021/11/05 08:08:10;;;;;;;1.88;0.95;;;20.50;54.20;;;;;;5042462;28;20031;-60
2021/11/05 08:10:36;;;;;;;0.98;0.70;;;20.60;54.20;;;;;;5036407;28;20019;-59
2021/11/05 08:13:02;;;;;;;1.52;0.77;;;20.50;54.20;;;;;;5035365;28;20041;-59
2021/11/05 08:15:27;;;;;;;1.33;0.70;;;20.50;54.20;;;;;;5051291;28;20070;-59
2021/11/05 08:17:53;;;;;;;1.17;0.82;;;20.50;54.20;;;;;;5040030;28;20364;-60
2021/11/05 08:20:19;;;;;;;1.40;0.90;;;20.50;54.20;;;;;;5035875;28;20086;-58
2021/11/05 08:22:45;;;;;;;0.70;0.70;;;20.50;54.20;;;;;;5038626;28;20041;-59
2021/11/05 08:25:12;;;;;;;1.27;1.00;;;20.50;54.20;;;;;;5036844;28;20033;-56
2021/11/05 08:27:38;;;;;;;1.25;0.70;;;20.50;54.20;;;;;;5029571;28;20041;-59
2021/11/05 08:30:14;;;;;;;1.25;0.80;;;20.50;54.20;;;;;;5044847;28;20456;-58
2021/11/05 08:32:39;;;;;;;1.20;0.80;;;20.50;54.20;;;;;;5035321;28;20123;-57
2021/11/05 08:35:08;;;;;;;1.30;0.70;;;20.50;54.20;;;;;;5042728;28;20029;-55
2021/11/05 08:37:34;;;;;;;1.02;0.73;;;20.50;54.20;;;;;;5040046;28;20601;-59
2021/11/05 08:40:00;;;;;;;0.98;0.70;;;20.50;54.20;;;;;;5042153;28;20108;-58
2021/11/05 08:42:27;;;;;;;0.70;0.70;;;20.50;54.30;;;;;;5041886;28;20035;-59
2021/11/05 08:44:53;;;;;;;0.88;0.70;;;20.50;54.20;;;;;;5030939;28;20058;-59
2021/11/05 08:47:19;;;;;;;0.80;0.80;;;20.50;54.30;;;;;;5048596;28;20041;-59
2021/11/05 08:49:49;;;;;;;1.58;0.90;;;20.50;54.20;;;;;;5046154;28;20061;-60
2021/11/05 08:52:16;;;;;;;2.13;0.80;;;20.50;54.20;;;;;;5033337;28;20036;-59
2021/11/05 08:54:42;;;;;;;1.00;0.80;;;20.50;54.20;;;;;;5032321;28;20025;-57
2021/11/05 08:57:08;;;;;;;0.70;0.60;;;20.50;54.70;;;;;;5026570;28;20030;-60
2021/11/05 08:59:33;;;;;;;1.30;0.90;;;20.40;54.20;;;;;;5032407;28;20772;-59
2021/11/05 09:01:59;;;;;;;1.10;0.80;;;20.40;54.20;;;;;;5031260;28;20044;-58
2021/11/05 09:04:25;;;;;;;1.30;0.88;;;20.50;54.20;;;;;;5035104;28;20063;-57
2021/11/05 09:06:50;;;;;;;0.65;0.60;;;20.40;54.20;;;;;;5031551;28;20029;-58
2021/11/05 09:09:16;;;;;;;1.20;0.80;;;20.50;54.20;;;;;;5034160;28;20028;-56
2021/11/05 09:11:46;;;;;;;0.95;0.80;;;20.40;54.20;;;;;;5033916;28;20063;-57
2021/11/05 09:14:12;;;;;;;1.17;0.77;;;20.40;54.20;;;;;;5039225;28;20095;-59
2021/11/05 09:16:37;;;;;;;0.90;0.73;;;20.40;54.20;;;;;;5031872;28;20037;-59
2021/11/05 09:19:03;;;;;;;1.10;0.70;;;20.50;54.30;;;;;;5034125;28;20033;-59
2021/11/05 09:21:31;;;;;;;1.45;0.80;;;20.40;54.20;;;;;;5031505;28;20187;-58
2021/11/05 09:23:57;;;;;;;0.85;0.60;;;20.40;54.20;;;;;;5030444;28;20106;-58
2021/11/05 09:26:24;;;;;;;1.00;0.70;;;20.40;54.20;;;;;;5025104;28;20041;-57
2021/11/05 09:28:50;;;;;;;2.03;1.05;;;20.40;54.30;;;;;;5030514;28;20053;-59
2021/11/05 09:31:16;;;;;;;0.73;0.68;;;20.40;54.30;;;;;;5031530;28;22474;-59
2021/11/05 09:33:42;;;;;;;1.20;0.80;;;20.40;54.30;;;;;;5029856;28;20103;-59
2021/11/05 09:36:07;;;;;;;1.40;0.90;;;20.40;54.30;;;;;;5029987;28;20567;-60
2021/11/05 09:38:33;;;;;;;0.85;0.65;;;20.40;54.30;;;;;;5030322;28;20778;-59
2021/11/05 09:40:59;;;;;;;1.20;0.73;;;20.40;54.30;;;;;;5030969;28;20048;-58
2021/11/05 09:43:25;;;;;;;1.10;0.80;;;20.40;54.30;;;;;;5030406;28;20029;-59
2021/11/05 09:45:51;;;;;;;1.80;0.77;;;20.40;54.30;;;;;;5030455;28;20027;-56
2021/11/05 09:48:21;;;;;;;2.03;1.00;;;20.40;54.40;;;;;;5031820;28;20037;-60
2021/11/05 09:50:47;;;;;;;1.23;0.80;;;20.40;54.40;;;;;;5030313;28;20025;-59
2021/11/05 09:53:12;;;;;;;1.67;0.68;;;20.40;54.40;;;;;;5031711;28;20033;-58
2021/11/05 09:55:46;;;;;;;1.23;0.82;;;20.40;54.40;;;;;;5034345;28;20029;-59
2021/11/05 09:58:13;;;;;;;0.82;0.65;;;20.40;54.40;;;;;;5034606;28;20118;-58
2021/11/05 10:00:40;;;;;;;1.00;0.75;;;20.40;54.40;;;;;;5033318;28;20397;-59
2021/11/05 10:03:06;;;;;;;2.03;0.80;;;20.40;54.40;;;;;;5033051;28;20047;-59
2021/11/05 10:05:34;;;;;;;1.10;0.70;;;20.40;54.40;;;;;;5042090;28;20033;-59
2021/11/05 10:08:00;;;;;;;1.45;0.80;;;20.40;54.40;;;;;;5039048;28;20120;-59
2021/11/05 10:10:31;;;;;;;1.30;0.75;;;20.40;54.50;;;;;;5037798;28;20181;-59
2021/11/05 10:13:05;;;;;;;1.00;0.70;;;20.40;54.50;;;;;;5032022;28;20035;-59
2021/11/05 10:15:47;;;;;;;2.25;0.80;;;20.40;54.50;;;;;;5033415;28;20040;-59
2021/11/05 10:18:27;;;;;;;1.55;0.73;;;20.40;54.50;;;;;;5037872;28;20028;-58
2021/11/05 10:21:13;;;;;;;2.50;0.77;;;20.30;54.50;;;;;;5036404;28;20061;-57
2021/11/05 10:23:42;;;;;;;1.55;0.80;;;20.30;54.50;;;;;;5041099;28;20032;-59
2021/11/05 10:26:18;;;;;;;1.67;0.80;;;20.30;54.50;;;;;;5044417;28;20107;-59
2021/11/05 10:28:44;;;;;;;0.90;0.70;;;20.40;54.60;;;;;;5040291;28;20545;-56
2021/11/05 10:31:12;;;;;;;1.40;0.80;;;20.30;54.50;;;;;;5045825;28;20176;-57
2021/11/05 10:33:40;;;;;;;0.98;0.60;;;20.30;54.60;;;;;;5043325;28;20509;-58
2021/11/05 10:36:10;;;;;;;1.45;0.80;;;20.30;54.60;;;;;;5042969;28;20056;-58
2021/11/05 10:38:48;;;;;;;1.17;0.80;;;20.30;54.60;;;;;;5029734;28;20078;-59
2021/11/05 10:41:17;;;;;;;1.15;0.80;;;20.30;54.60;;;;;;5032113;28;20106;-58
2021/11/05 10:43:47;;;;;;;1.83;0.77;;;20.30;54.60;;;;;;5031329;28;20052;-60
2021/11/05 10:46:28;;;;;;;1.40;0.70;;;20.30;54.60;;;;;;5030188;28;20039;-57
2021/11/05 10:48:56;;;;;;;1.13;0.70;;;20.30;54.70;;;;;;5031892;28;20112;-59
2021/11/05 10:51:24;;;;;;;1.73;0.80;;;20.30;54.60;;;;;;5034568;28;20079;-59
2021/11/05 10:53:50;;;;;;;1.67;0.80;;;20.30;54.60;;;;;;5031976;28;20096;-59
2021/11/05 10:56:24;;;;;;;1.35;0.70;;;20.40;54.70;;;;;;5035776;28;20428;-55
2021/11/05 10:58:49;;;;;;;1.05;0.70;;;20.30;54.70;;;;;;5032955;28;20028;-56
2021/11/05 11:01:17;;;;;;;1.17;0.90;;;20.40;54.70;;;;;;5033265;28;20041;-59
2021/11/05 11:03:58;;;;;;;1.48;0.90;;;20.30;54.70;;;;;;5030629;28;20109;-59
2021/11/05 11:06:30;;;;;;;2.20;0.80;;;20.30;54.70;;;;;;5037581;28;20064;-59
2021/11/05 11:09:05;;;;;;;2.40;0.60;;;20.30;54.70;;;;;;5031359;28;20746;-59
2021/11/05 11:11:33;;;;;;;1.83;0.60;;;20.30;54.70;;;;;;5026929;28;20391;-59
2021/11/05 11:14:07;;;;;;;1.45;0.73;;;20.30;54.70;;;;;;5042447;28;20421;-60
2021/11/05 11:16:39;;;;;;;2.45;0.88;;;20.30;54.70;;;;;;5036047;28;20207;-57
2021/11/05 11:19:16;;;;;;;1.17;0.70;;;20.30;54.70;;;;;;5033444;28;20029;-58
2021/11/05 11:21:52;;;;;;;0.75;0.65;;;20.30;54.80;;;;;;5035332;28;20037;-59
2021/11/05 11:24:23;;;;;;;1.65;0.82;;;20.30;54.80;;;;;;5043518;28;20033;-59
2021/11/05 11:26:50;;;;;;;1.80;0.80;;;20.30;54.90;;;;;;5030862;28;20120;-59
2021/11/05 11:29:19;;;;;;;1.98;0.90;;;20.30;54.80;;;;;;5032265;28;20063;-59
2021/11/05 11:31:45;;;;;;;1.13;0.77;;;20.30;54.90;;;;;;5031329;28;20060;-58
2021/11/05 11:34:14;;;;;;;1.48;0.80;;;20.30;55.00;;;;;;5037168;28;20025;-60
2021/11/05 11:36:42;;;;;;;2.10;0.97;;;20.30;55.00;;;;;;5034548;28;20091;-59
2021/11/05 11:39:11;;;;;;;1.75;0.90;;;20.30;55.00;;;;;;5028595;28;20284;-59
2021/11/05 11:41:37;;;;;;;3.60;1.15;;;20.30;55.00;;;;;;5027714;28;20482;-58
2021/11/05 11:44:05;;;;;;;5.63;1.88;;;20.30;55.20;;;;;;5029416;28;20078;-58
2021/11/05 11:47:07;;;;;;;6.63;2.60;;;20.30;55.20;;;;;;5028673;28;20064;-59
2021/11/05 11:49:38;;;;;;;7.15;3.22;;;20.30;55.40;;;;;;5031488;28;20380;-59
2021/11/05 11:52:29;;;;;;;8.35;3.50;;;20.30;55.40;;;;;;5029977;28;20031;-59
2021/11/05 11:55:00;;;;;;;12.05;3.95;;;20.30;55.70;;;;;;5031204;28;20028;-59
2021/11/05 11:57:31;;;;;;;11.23;4.32;;;20.30;55.60;;;;;;5037662;28;20140;-59
2021/11/05 12:00:15;;;;;;;10.23;4.88;;;20.30;55.70;;;;;;5031981;28;20160;-59
2021/11/05 12:02:44;;;;;;;13.60;4.72;;;20.30;56.20;;;;;;5029955;28;20041;-58
2021/11/05 12:05:19;;;;;;;12.73;4.63;;;20.40;56.50;;;;;;5024317;28;20069;-59
2021/11/05 12:08:12;;;;;;;9.60;4.50;;;20.40;57.40;;;;;;5032656;28;20037;-59
2021/11/05 12:10:38;;;;;;;9.55;4.30;;;20.40;57.80;;;;;;5036176;28;20122;-58
2021/11/05 12:13:35;;;;;;;8.55;4.10;;;20.40;57.40;;;;;;5028645;28;20037;-56
2021/11/05 12:16:18;;;;;;;9.57;4.80;;;20.50;57.10;;;;;;5034626;28;20060;-58
2021/11/05 12:21:23;;;;;;;17.52;6.32;;;20.60;56.90;;;;;;5035604;28;20041;-57
2021/11/05 12:24:15;;;;;;;12.90;5.68;;;20.60;56.60;;;;;;5035271;28;20037;-58
2021/11/05 12:27:02;;;;;;;12.77;5.07;;;20.60;57.10;;;;;;5030020;28;20470;-59
2021/11/05 12:29:36;;;;;;;15.65;5.53;;;20.70;57.10;;;;;;5028005;28;20464;-60
2021/11/05 12:32:22;;;;;;;12.00;5.20;;;20.70;56.80;;;;;;5030615;28;20051;-59
2021/11/05 12:34:51;;;;;;;16.08;5.60;;;20.80;56.60;;;;;;5028451;28;20040;-59
2021/11/05 12:37:36;;;;;;;12.93;5.38;;;20.80;56.60;;;;;;5026192;28;20036;-59
2021/11/05 12:40:20;;;;;;;12.30;5.45;;;20.90;56.60;;;;;;5030833;28;20029;-58
2021/11/05 12:42:48;;;;;;;13.38;5.60;;;20.90;56.50;;;;;;5025426;28;20041;-58
2021/11/05 12:45:14;;;;;;;14.80;6.07;;;20.90;56.20;;;;;;5027855;28;20037;-57
2021/11/05 12:47:53;;;;;;;12.73;5.35;;;21.00;56.20;;;;;;5033348;28;20040;-59
2021/11/05 12:50:25;;;;;;;12.55;5.35;;;21.00;56.30;;;;;;5033099;28;20116;-60